sensor_id;sensor_type;location;lat;lon;timestamp;P1;durP1;ratioP1;P2;durP2;ratioP2
15486;SDS011;7845;53.698;10.078;2022-08-19T00:01:12;12.57;;;11.13;;
15486;SDS011;7845;53.698;10.078;2022-08-19T00:03:37;14.90;;;11.40;;
15486;SDS011;7845;53.698;10.078;2022-08-19T00:06:02;15.17;;;11.93;;
15486;SDS011;7845;53.698;10.078;2022-08-19T00:08:28;12.57;;;10.57;;
15486;SDS011;7845;53.698;10.078;2022-08-19T00:10:53;15.87;;;12.17;;
15486;SDS011;7845;53.698;10.078;2022-08-19T00:13:18;16.33;;;14.60;;
15486;SDS011;7845;53.698;10.078;2022-08-19T00:15:44;15.60;;;13.30;;
15486;SDS011;7845;53.698;10.078;2022-08-19T00:18:09;17.20;;;13.70;;
15486;SDS011;7845;53.698;10.078;2022-08-19T00:20:35;15.97;;;12.70;;
15486;SDS011;7845;53.698;10.078;2022-08-19T00:23:00;15.47;;;12.50;;
15486;SDS011;7845;53.698;10.078;2022-08-19T00:25:25;16.20;;;12.90;;
15486;SDS011;7845;53.698;10.078;2022-08-19T00:27:51;20.60;;;15.40;;
15486;SDS011;7845;53.698;10.078;2022-08-19T00:30:16;18.30;;;14.17;;
15486;SDS011;7845;53.698;10.078;2022-08-19T00:32:42;19.83;;;14.50;;
15486;SDS011;7845;53.698;10.078;2022-08-19T00:35:07;19.03;;;14.10;;
15486;SDS011;7845;53.698;10.078;2022-08-19T00:37:34;20.67;;;18.27;;
15486;SDS011;7845;53.698;10.078;2022-08-19T00:39:59;23.60;;;16.83;;
15486;SDS011;7845;53.698;10.078;2022-08-19T00:42:25;19.90;;;15.10;;
15486;SDS011;7845;53.698;10.078;2022-08-19T00:44:53;19.93;;;15.57;;
15486;SDS011;7845;53.698;10.078;2022-08-19T00:47:19;25.90;;;18.57;;
15486;SDS011;7845;53.698;10.078;2022-08-19T00:49:48;22.73;;;18.40;;
15486;SDS011;7845;53.698;10.078;2022-08-19T00:52:24;31.50;;;21.70;;
15486;SDS011;7845;53.698;10.078;2022-08-19T00:54:54;25.40;;;20.20;;
15486;SDS011;7845;53.698;10.078;2022-08-19T00:57:22;24.20;;;18.30;;
15486;SDS011;7845;53.698;10.078;2022-08-19T00:59:52;30.63;;;20.40;;
15486;SDS011;7845;53.698;10.078;2022-08-19T01:02:21;28.50;;;21.50;;
15486;SDS011;7845;53.698;10.078;2022-08-19T01:04:48;31.57;;;23.87;;
15486;SDS011;7845;53.698;10.078;2022-08-19T01:07:14;24.10;;;18.67;;
15486;SDS011;7845;53.698;10.078;2022-08-19T01:09:39;26.27;;;20.17;;
15486;SDS011;7845;53.698;10.078;2022-08-19T01:12:05;27.67;;;21.30;;
15486;SDS011;7845;53.698;10.078;2022-08-19T01:14:31;28.40;;;21.80;;
15486;SDS011;7845;53.698;10.078;2022-08-19T01:16:58;26.30;;;20.10;;
15486;SDS011;7845;53.698;10.078;2022-08-19T01:19:32;22.83;;;19.03;;
15486;SDS011;7845;53.698;10.078;2022-08-19T01:22:03;25.87;;;20.23;;
15486;SDS011;7845;53.698;10.078;2022-08-19T01:24:33;24.20;;;18.63;;
15486;SDS011;7845;53.698;10.078;2022-08-19T01:26:59;29.87;;;22.77;;
15486;SDS011;7845;53.698;10.078;2022-08-19T01:29:24;29.50;;;23.90;;
15486;SDS011;7845;53.698;10.078;2022-08-19T01:31:49;25.30;;;20.63;;
15486;SDS011;7845;53.698;10.078;2022-08-19T01:34:17;30.00;;;21.70;;
15486;SDS011;7845;53.698;10.078;2022-08-19T01:36:44;27.17;;;19.83;;
15486;SDS011;7845;53.698;10.078;2022-08-19T01:39:14;35.03;;;21.13;;
15486;SDS011;7845;53.698;10.078;2022-08-19T01:41:44;25.17;;;19.20;;
15486;SDS011;7845;53.698;10.078;2022-08-19T01:44:09;27.90;;;19.70;;
15486;SDS011;7845;53.698;10.078;2022-08-19T01:46:35;25.70;;;18.10;;
15486;SDS011;7845;53.698;10.078;2022-08-19T01:49:03;28.63;;;21.27;;
15486;SDS011;7845;53.698;10.078;2022-08-19T01:51:29;24.80;;;19.03;;
15486;SDS011;7845;53.698;10.078;2022-08-19T01:53:55;25.30;;;19.43;;
15486;SDS011;7845;53.698;10.078;2022-08-19T01:56:22;22.20;;;17.17;;
15486;SDS011;7845;53.698;10.078;2022-08-19T01:58:53;24.57;;;19.63;;
15486;SDS011;7845;53.698;10.078;2022-08-19T02:01:21;31.30;;;22.73;;
15486;SDS011;7845;53.698;10.078;2022-08-19T02:03:47;25.93;;;19.63;;
15486;SDS011;7845;53.698;10.078;2022-08-19T02:06:12;28.27;;;20.70;;
15486;SDS011;7845;53.698;10.078;2022-08-19T02:08:39;27.63;;;18.40;;
15486;SDS011;7845;53.698;10.078;2022-08-19T02:11:05;37.43;;;22.43;;
15486;SDS011;7845;53.698;10.078;2022-08-19T02:13:32;26.80;;;17.90;;
15486;SDS011;7845;53.698;10.078;2022-08-19T02:15:58;34.20;;;20.97;;
15486;SDS011;7845;53.698;10.078;2022-08-19T02:18:23;26.10;;;18.80;;
15486;SDS011;7845;53.698;10.078;2022-08-19T02:20:49;31.77;;;17.90;;
15486;SDS011;7845;53.698;10.078;2022-08-19T02:23:15;24.87;;;18.37;;
15486;SDS011;7845;53.698;10.078;2022-08-19T02:25:45;30.57;;;19.80;;
15486;SDS011;7845;53.698;10.078;2022-08-19T02:28:13;27.93;;;19.10;;
15486;SDS011;7845;53.698;10.078;2022-08-19T02:30:39;23.73;;;17.90;;
15486;SDS011;7845;53.698;10.078;2022-08-19T02:33:06;25.30;;;18.03;;
15486;SDS011;7845;53.698;10.078;2022-08-19T02:35:31;28.67;;;18.73;;
15486;SDS011;7845;53.698;10.078;2022-08-19T02:37:57;27.97;;;20.03;;
15486;SDS011;7845;53.698;10.078;2022-08-19T02:40:47;25.07;;;18.90;;
15486;SDS011;7845;53.698;10.078;2022-08-19T02:43:15;29.03;;;18.00;;
15486;SDS011;7845;53.698;10.078;2022-08-19T02:45:40;31.23;;;19.07;;
15486;SDS011;7845;53.698;10.078;2022-08-19T02:48:06;34.53;;;18.47;;
15486;SDS011;7845;53.698;10.078;2022-08-19T02:50:33;33.73;;;20.17;;
15486;SDS011;7845;53.698;10.078;2022-08-19T02:53:03;32.13;;;17.73;;
15486;SDS011;7845;53.698;10.078;2022-08-19T02:55:28;26.73;;;17.40;;
15486;SDS011;7845;53.698;10.078;2022-08-19T02:57:54;28.10;;;19.63;;
15486;SDS011;7845;53.698;10.078;2022-08-19T03:00:19;28.53;;;19.07;;
15486;SDS011;7845;53.698;10.078;2022-08-19T03:02:44;25.60;;;16.93;;
15486;SDS011;7845;53.698;10.078;2022-08-19T03:05:11;30.50;;;20.60;;
15486;SDS011;7845;53.698;10.078;2022-08-19T03:07:37;23.77;;;16.63;;
15486;SDS011;7845;53.698;10.078;2022-08-19T03:10:02;31.30;;;19.30;;
15486;SDS011;7845;53.698;10.078;2022-08-19T03:12:29;18.70;;;14.70;;
15486;SDS011;7845;53.698;10.078;2022-08-19T03:14:54;27.77;;;19.40;;
15486;SDS011;7845;53.698;10.078;2022-08-19T03:17:19;24.70;;;17.00;;
15486;SDS011;7845;53.698;10.078;2022-08-19T03:19:45;25.00;;;16.87;;
15486;SDS011;7845;53.698;10.078;2022-08-19T03:22:10;23.23;;;17.70;;
15486;SDS011;7845;53.698;10.078;2022-08-19T03:24:36;25.47;;;17.50;;
15486;SDS011;7845;53.698;10.078;2022-08-19T03:27:03;25.93;;;16.23;;
15486;SDS011;7845;53.698;10.078;2022-08-19T03:29:30;21.80;;;14.57;;
15486;SDS011;7845;53.698;10.078;2022-08-19T03:31:57;24.27;;;15.93;;
15486;SDS011;7845;53.698;10.078;2022-08-19T03:34:28;20.30;;;15.20;;
15486;SDS011;7845;53.698;10.078;2022-08-19T03:36:56;22.43;;;16.17;;
15486;SDS011;7845;53.698;10.078;2022-08-19T03:39:24;19.00;;;15.13;;
15486;SDS011;7845;53.698;10.078;2022-08-19T03:41:51;20.03;;;14.40;;
15486;SDS011;7845;53.698;10.078;2022-08-19T03:44:21;21.73;;;17.73;;
15486;SDS011;7845;53.698;10.078;2022-08-19T03:46:55;23.73;;;16.70;;
15486;SDS011;7845;53.698;10.078;2022-08-19T03:49:23;19.77;;;15.33;;
15486;SDS011;7845;53.698;10.078;2022-08-19T03:51:49;22.87;;;15.20;;
15486;SDS011;7845;53.698;10.078;2022-08-19T03:54:17;25.37;;;15.57;;
15486;SDS011;7845;53.698;10.078;2022-08-19T03:56:44;20.67;;;15.60;;
15486;SDS011;7845;53.698;10.078;2022-08-19T03:59:14;24.30;;;18.37;;
15486;SDS011;7845;53.698;10.078;2022-08-19T04:01:43;23.40;;;17.47;;
15486;SDS011;7845;53.698;10.078;2022-08-19T04:04:09;24.07;;;15.63;;
15486;SDS011;7845;53.698;10.078;2022-08-19T04:06:36;26.83;;;19.43;;
15486;SDS011;7845;53.698;10.078;2022-08-19T04:09:05;23.47;;;17.60;;
15486;SDS011;7845;53.698;10.078;2022-08-19T04:11:34;26.43;;;18.80;;
15486;SDS011;7845;53.698;10.078;2022-08-19T04:14:09;20.37;;;16.17;;
15486;SDS011;7845;53.698;10.078;2022-08-19T04:16:39;23.40;;;17.23;;
15486;SDS011;7845;53.698;10.078;2022-08-19T04:19:04;23.97;;;17.63;;
15486;SDS011;7845;53.698;10.078;2022-08-19T04:21:30;22.77;;;16.00;;
15486;SDS011;7845;53.698;10.078;2022-08-19T04:23:56;23.53;;;17.00;;
15486;SDS011;7845;53.698;10.078;2022-08-19T04:26:26;24.87;;;18.47;;
15486;SDS011;7845;53.698;10.078;2022-08-19T04:28:57;24.50;;;15.50;;
15486;SDS011;7845;53.698;10.078;2022-08-19T04:31:25;27.13;;;17.73;;
15486;SDS011;7845;53.698;10.078;2022-08-19T04:33:53;28.43;;;19.40;;
15486;SDS011;7845;53.698;10.078;2022-08-19T04:36:22;21.60;;;15.73;;
15486;SDS011;7845;53.698;10.078;2022-08-19T04:38:50;23.70;;;17.30;;
15486;SDS011;7845;53.698;10.078;2022-08-19T04:41:19;22.70;;;15.67;;
15486;SDS011;7845;53.698;10.078;2022-08-19T04:44:03;31.20;;;18.77;;
15486;SDS011;7845;53.698;10.078;2022-08-19T04:46:29;21.00;;;16.47;;
15486;SDS011;7845;53.698;10.078;2022-08-19T04:48:57;23.13;;;16.67;;
15486;SDS011;7845;53.698;10.078;2022-08-19T04:51:26;30.27;;;20.67;;
15486;SDS011;7845;53.698;10.078;2022-08-19T04:53:52;24.47;;;16.83;;
15486;SDS011;7845;53.698;10.078;2022-08-19T04:56:17;21.33;;;15.77;;
15486;SDS011;7845;53.698;10.078;2022-08-19T04:58:46;21.00;;;15.60;;
15486;SDS011;7845;53.698;10.078;2022-08-19T05:01:21;19.60;;;15.97;;
15486;SDS011;7845;53.698;10.078;2022-08-19T05:03:48;23.43;;;17.23;;
15486;SDS011;7845;53.698;10.078;2022-08-19T05:06:14;22.10;;;16.73;;
15486;SDS011;7845;53.698;10.078;2022-08-19T05:08:42;29.67;;;20.87;;
15486;SDS011;7845;53.698;10.078;2022-08-19T05:11:18;28.57;;;19.60;;
15486;SDS011;7845;53.698;10.078;2022-08-19T05:13:46;26.57;;;18.23;;
15486;SDS011;7845;53.698;10.078;2022-08-19T05:16:14;27.27;;;18.87;;
15486;SDS011;7845;53.698;10.078;2022-08-19T05:18:41;24.70;;;17.20;;
15486;SDS011;7845;53.698;10.078;2022-08-19T05:21:26;24.60;;;19.27;;
15486;SDS011;7845;53.698;10.078;2022-08-19T05:24:17;30.77;;;20.43;;
15486;SDS011;7845;53.698;10.078;2022-08-19T05:26:44;25.30;;;17.10;;
15486;SDS011;7845;53.698;10.078;2022-08-19T05:29:12;26.33;;;17.37;;
15486;SDS011;7845;53.698;10.078;2022-08-19T05:31:39;22.20;;;16.80;;
15486;SDS011;7845;53.698;10.078;2022-08-19T05:34:05;24.03;;;16.57;;
15486;SDS011;7845;53.698;10.078;2022-08-19T05:36:41;25.90;;;17.53;;
15486;SDS011;7845;53.698;10.078;2022-08-19T05:39:09;26.60;;;16.17;;
15486;SDS011;7845;53.698;10.078;2022-08-19T05:41:44;27.93;;;19.10;;
15486;SDS011;7845;53.698;10.078;2022-08-19T05:44:14;25.10;;;18.33;;
15486;SDS011;7845;53.698;10.078;2022-08-19T05:46:42;25.97;;;19.17;;
15486;SDS011;7845;53.698;10.078;2022-08-19T05:49:09;24.97;;;18.60;;
15486;SDS011;7845;53.698;10.078;2022-08-19T05:51:35;28.40;;;18.37;;
15486;SDS011;7845;53.698;10.078;2022-08-19T05:54:02;30.93;;;19.60;;
15486;SDS011;7845;53.698;10.078;2022-08-19T05:56:29;29.00;;;18.80;;
15486;SDS011;7845;53.698;10.078;2022-08-19T05:58:57;32.70;;;20.70;;
15486;SDS011;7845;53.698;10.078;2022-08-19T06:01:23;27.77;;;17.50;;
15486;SDS011;7845;53.698;10.078;2022-08-19T06:03:50;24.63;;;16.80;;
15486;SDS011;7845;53.698;10.078;2022-08-19T06:06:16;22.30;;;16.03;;
15486;SDS011;7845;53.698;10.078;2022-08-19T06:08:42;26.03;;;17.50;;
15486;SDS011;7845;53.698;10.078;2022-08-19T06:11:19;30.27;;;18.50;;
15486;SDS011;7845;53.698;10.078;2022-08-19T06:13:45;27.77;;;19.57;;
15486;SDS011;7845;53.698;10.078;2022-08-19T06:16:15;24.60;;;16.60;;
15486;SDS011;7845;53.698;10.078;2022-08-19T06:18:54;28.13;;;18.30;;
15486;SDS011;7845;53.698;10.078;2022-08-19T06:21:23;28.70;;;18.30;;
15486;SDS011;7845;53.698;10.078;2022-08-19T06:23:52;31.10;;;19.30;;
15486;SDS011;7845;53.698;10.078;2022-08-19T06:26:19;24.50;;;16.93;;
15486;SDS011;7845;53.698;10.078;2022-08-19T06:28:45;26.50;;;15.83;;
15486;SDS011;7845;53.698;10.078;2022-08-19T06:31:14;21.87;;;14.77;;
15486;SDS011;7845;53.698;10.078;2022-08-19T06:33:41;27.00;;;16.73;;
15486;SDS011;7845;53.698;10.078;2022-08-19T06:36:15;21.13;;;14.70;;
15486;SDS011;7845;53.698;10.078;2022-08-19T06:39:11;28.70;;;18.13;;
15486;SDS011;7845;53.698;10.078;2022-08-19T06:41:42;23.77;;;16.77;;
15486;SDS011;7845;53.698;10.078;2022-08-19T06:44:10;34.70;;;20.13;;
15486;SDS011;7845;53.698;10.078;2022-08-19T06:46:36;24.30;;;16.67;;
15486;SDS011;7845;53.698;10.078;2022-08-19T06:49:03;23.53;;;18.33;;
15486;SDS011;7845;53.698;10.078;2022-08-19T06:51:29;26.23;;;19.30;;
15486;SDS011;7845;53.698;10.078;2022-08-19T06:53:56;28.00;;;17.07;;
15486;SDS011;7845;53.698;10.078;2022-08-19T06:56:23;25.30;;;16.57;;
15486;SDS011;7845;53.698;10.078;2022-08-19T06:58:56;29.67;;;19.57;;
15486;SDS011;7845;53.698;10.078;2022-08-19T07:01:21;24.47;;;16.10;;
15486;SDS011;7845;53.698;10.078;2022-08-19T07:03:47;22.00;;;14.67;;
15486;SDS011;7845;53.698;10.078;2022-08-19T07:06:14;24.03;;;15.70;;
15486;SDS011;7845;53.698;10.078;2022-08-19T07:08:42;22.93;;;14.73;;
15486;SDS011;7845;53.698;10.078;2022-08-19T07:11:12;24.87;;;15.73;;
15486;SDS011;7845;53.698;10.078;2022-08-19T07:13:39;28.83;;;19.40;;
15486;SDS011;7845;53.698;10.078;2022-08-19T07:16:08;27.57;;;19.07;;
15486;SDS011;7845;53.698;10.078;2022-08-19T07:18:36;25.03;;;16.80;;
15486;SDS011;7845;53.698;10.078;2022-08-19T07:21:06;29.07;;;17.70;;
15486;SDS011;7845;53.698;10.078;2022-08-19T07:23:33;28.57;;;16.27;;
15486;SDS011;7845;53.698;10.078;2022-08-19T07:26:10;23.47;;;17.77;;
15486;SDS011;7845;53.698;10.078;2022-08-19T07:28:54;27.40;;;17.80;;
15486;SDS011;7845;53.698;10.078;2022-08-19T07:31:22;26.47;;;17.33;;
15486;SDS011;7845;53.698;10.078;2022-08-19T07:33:50;24.93;;;16.77;;
15486;SDS011;7845;53.698;10.078;2022-08-19T07:36:18;24.17;;;16.93;;
15486;SDS011;7845;53.698;10.078;2022-08-19T07:38:48;34.60;;;20.00;;
15486;SDS011;7845;53.698;10.078;2022-08-19T07:41:16;30.87;;;20.53;;
15486;SDS011;7845;53.698;10.078;2022-08-19T07:43:46;25.40;;;17.30;;
15486;SDS011;7845;53.698;10.078;2022-08-19T07:46:13;28.13;;;20.60;;
15486;SDS011;7845;53.698;10.078;2022-08-19T07:48:40;31.30;;;20.17;;
15486;SDS011;7845;53.698;10.078;2022-08-19T07:51:09;23.33;;;17.00;;
15486;SDS011;7845;53.698;10.078;2022-08-19T07:53:36;28.90;;;19.87;;
15486;SDS011;7845;53.698;10.078;2022-08-19T07:56:04;31.10;;;22.30;;
15486;SDS011;7845;53.698;10.078;2022-08-19T07:58:31;26.80;;;17.37;;
15486;SDS011;7845;53.698;10.078;2022-08-19T08:00:58;28.20;;;18.87;;
15486;SDS011;7845;53.698;10.078;2022-08-19T08:03:24;22.57;;;17.17;;
15486;SDS011;7845;53.698;10.078;2022-08-19T08:06:10;25.00;;;17.27;;
15486;SDS011;7845;53.698;10.078;2022-08-19T08:08:56;28.73;;;19.33;;
15486;SDS011;7845;53.698;10.078;2022-08-19T08:11:38;25.60;;;18.13;;
15486;SDS011;7845;53.698;10.078;2022-08-19T08:14:04;24.60;;;18.20;;
15486;SDS011;7845;53.698;10.078;2022-08-19T08:16:30;27.27;;;18.80;;
15486;SDS011;7845;53.698;10.078;2022-08-19T08:18:58;24.23;;;15.27;;
15486;SDS011;7845;53.698;10.078;2022-08-19T08:21:24;26.40;;;18.80;;
15486;SDS011;7845;53.698;10.078;2022-08-19T08:23:49;26.30;;;20.13;;
15486;SDS011;7845;53.698;10.078;2022-08-19T08:26:16;25.57;;;18.17;;
15486;SDS011;7845;53.698;10.078;2022-08-19T08:28:42;25.90;;;18.80;;
15486;SDS011;7845;53.698;10.078;2022-08-19T08:31:07;23.57;;;16.20;;
15486;SDS011;7845;53.698;10.078;2022-08-19T08:33:32;28.40;;;19.93;;
15486;SDS011;7845;53.698;10.078;2022-08-19T08:35:58;24.40;;;20.07;;
15486;SDS011;7845;53.698;10.078;2022-08-19T08:38:23;24.83;;;16.63;;
15486;SDS011;7845;53.698;10.078;2022-08-19T08:40:50;31.50;;;20.73;;
15486;SDS011;7845;53.698;10.078;2022-08-19T08:43:23;22.43;;;17.60;;
15486;SDS011;7845;53.698;10.078;2022-08-19T08:46:11;32.40;;;19.27;;
15486;SDS011;7845;53.698;10.078;2022-08-19T08:51:28;27.30;;;19.20;;
15486;SDS011;7845;53.698;10.078;2022-08-19T08:53:58;27.37;;;18.70;;
15486;SDS011;7845;53.698;10.078;2022-08-19T08:56:24;26.47;;;17.97;;
15486;SDS011;7845;53.698;10.078;2022-08-19T08:58:51;25.53;;;17.53;;
15486;SDS011;7845;53.698;10.078;2022-08-19T09:01:26;29.67;;;16.63;;
15486;SDS011;7845;53.698;10.078;2022-08-19T09:03:52;21.10;;;15.33;;
15486;SDS011;7845;53.698;10.078;2022-08-19T09:06:38;23.73;;;16.10;;
15486;SDS011;7845;53.698;10.078;2022-08-19T09:09:25;25.47;;;17.40;;
15486;SDS011;7845;53.698;10.078;2022-08-19T09:14:47;23.57;;;17.10;;
15486;SDS011;7845;53.698;10.078;2022-08-19T09:17:22;23.17;;;16.03;;
15486;SDS011;7845;53.698;10.078;2022-08-19T09:19:54;23.47;;;15.67;;
15486;SDS011;7845;53.698;10.078;2022-08-19T09:22:22;24.90;;;17.83;;
15486;SDS011;7845;53.698;10.078;2022-08-19T09:24:50;24.80;;;18.30;;
15486;SDS011;7845;53.698;10.078;2022-08-19T09:27:17;23.30;;;18.37;;
15486;SDS011;7845;53.698;10.078;2022-08-19T09:29:43;27.20;;;16.73;;
15486;SDS011;7845;53.698;10.078;2022-08-19T09:32:09;25.23;;;18.07;;
15486;SDS011;7845;53.698;10.078;2022-08-19T09:34:34;28.13;;;19.90;;
15486;SDS011;7845;53.698;10.078;2022-08-19T09:36:59;26.03;;;17.00;;
15486;SDS011;7845;53.698;10.078;2022-08-19T09:39:25;23.77;;;18.13;;
15486;SDS011;7845;53.698;10.078;2022-08-19T09:41:51;23.97;;;16.40;;
15486;SDS011;7845;53.698;10.078;2022-08-19T09:44:18;23.60;;;17.50;;
15486;SDS011;7845;53.698;10.078;2022-08-19T09:46:45;25.37;;;16.07;;
15486;SDS011;7845;53.698;10.078;2022-08-19T09:49:12;23.93;;;17.23;;
15486;SDS011;7845;53.698;10.078;2022-08-19T09:51:37;23.83;;;17.00;;
15486;SDS011;7845;53.698;10.078;2022-08-19T09:54:03;26.17;;;20.00;;
15486;SDS011;7845;53.698;10.078;2022-08-19T09:56:29;25.30;;;17.33;;
15486;SDS011;7845;53.698;10.078;2022-08-19T09:58:55;23.40;;;16.23;;
15486;SDS011;7845;53.698;10.078;2022-08-19T10:01:25;24.17;;;18.50;;
15486;SDS011;7845;53.698;10.078;2022-08-19T10:03:52;22.40;;;16.80;;
15486;SDS011;7845;53.698;10.078;2022-08-19T10:06:21;21.77;;;16.27;;
15486;SDS011;7845;53.698;10.078;2022-08-19T10:08:47;24.97;;;16.73;;
15486;SDS011;7845;53.698;10.078;2022-08-19T10:11:13;21.90;;;15.93;;
15486;SDS011;7845;53.698;10.078;2022-08-19T10:13:41;21.90;;;15.80;;
15486;SDS011;7845;53.698;10.078;2022-08-19T10:16:08;20.53;;;16.00;;
15486;SDS011;7845;53.698;10.078;2022-08-19T10:18:35;21.53;;;14.93;;
15486;SDS011;7845;53.698;10.078;2022-08-19T10:21:14;17.50;;;14.67;;
15486;SDS011;7845;53.698;10.078;2022-08-19T10:23:40;23.80;;;15.57;;
15486;SDS011;7845;53.698;10.078;2022-08-19T10:26:10;22.90;;;14.37;;
15486;SDS011;7845;53.698;10.078;2022-08-19T10:28:37;19.60;;;15.50;;
15486;SDS011;7845;53.698;10.078;2022-08-19T10:31:07;20.33;;;14.90;;
15486;SDS011;7845;53.698;10.078;2022-08-19T10:33:35;18.07;;;14.50;;
15486;SDS011;7845;53.698;10.078;2022-08-19T10:36:02;19.13;;;14.43;;
15486;SDS011;7845;53.698;10.078;2022-08-19T10:38:30;20.77;;;16.13;;
15486;SDS011;7845;53.698;10.078;2022-08-19T10:40:56;22.70;;;16.07;;
15486;SDS011;7845;53.698;10.078;2022-08-19T10:43:22;15.90;;;13.60;;
15486;SDS011;7845;53.698;10.078;2022-08-19T10:45:54;18.63;;;13.60;;
15486;SDS011;7845;53.698;10.078;2022-08-19T10:48:26;16.80;;;13.53;;
15486;SDS011;7845;53.698;10.078;2022-08-19T10:50:51;19.03;;;14.80;;
15486;SDS011;7845;53.698;10.078;2022-08-19T10:53:35;20.30;;;15.23;;
15486;SDS011;7845;53.698;10.078;2022-08-19T10:56:01;22.40;;;16.33;;
15486;SDS011;7845;53.698;10.078;2022-08-19T10:58:45;16.87;;;13.90;;
15486;SDS011;7845;53.698;10.078;2022-08-19T11:01:11;19.10;;;15.00;;
15486;SDS011;7845;53.698;10.078;2022-08-19T11:03:36;17.53;;;13.13;;
15486;SDS011;7845;53.698;10.078;2022-08-19T11:06:06;19.70;;;13.67;;
15486;SDS011;7845;53.698;10.078;2022-08-19T11:08:33;19.57;;;15.60;;
15486;SDS011;7845;53.698;10.078;2022-08-19T11:11:02;15.53;;;12.23;;
15486;SDS011;7845;53.698;10.078;2022-08-19T11:13:29;15.83;;;13.00;;
15486;SDS011;7845;53.698;10.078;2022-08-19T11:15:59;17.27;;;13.67;;
15486;SDS011;7845;53.698;10.078;2022-08-19T11:18:27;16.10;;;11.73;;
15486;SDS011;7845;53.698;10.078;2022-08-19T11:20:53;15.10;;;12.70;;
15486;SDS011;7845;53.698;10.078;2022-08-19T11:23:18;17.93;;;14.17;;
15486;SDS011;7845;53.698;10.078;2022-08-19T11:25:45;15.30;;;12.80;;
15486;SDS011;7845;53.698;10.078;2022-08-19T11:28:11;21.43;;;15.10;;
15486;SDS011;7845;53.698;10.078;2022-08-19T11:30:37;19.03;;;15.40;;
15486;SDS011;7845;53.698;10.078;2022-08-19T11:33:03;20.97;;;13.80;;
15486;SDS011;7845;53.698;10.078;2022-08-19T11:35:29;20.40;;;17.50;;
15486;SDS011;7845;53.698;10.078;2022-08-19T11:37:54;21.63;;;17.70;;
15486;SDS011;7845;53.698;10.078;2022-08-19T11:40:21;17.27;;;13.70;;
15486;SDS011;7845;53.698;10.078;2022-08-19T11:42:46;15.23;;;12.03;;
15486;SDS011;7845;53.698;10.078;2022-08-19T11:45:22;15.70;;;12.30;;
15486;SDS011;7845;53.698;10.078;2022-08-19T11:47:48;19.00;;;15.80;;
15486;SDS011;7845;53.698;10.078;2022-08-19T11:50:14;18.20;;;12.70;;
15486;SDS011;7845;53.698;10.078;2022-08-19T11:52:40;16.80;;;13.07;;
15486;SDS011;7845;53.698;10.078;2022-08-19T11:55:06;17.70;;;15.37;;
15486;SDS011;7845;53.698;10.078;2022-08-19T11:57:33;18.73;;;13.47;;
15486;SDS011;7845;53.698;10.078;2022-08-19T11:59:58;14.90;;;11.57;;
15486;SDS011;7845;53.698;10.078;2022-08-19T12:02:24;14.60;;;11.37;;
15486;SDS011;7845;53.698;10.078;2022-08-19T12:04:50;16.87;;;13.17;;
15486;SDS011;7845;53.698;10.078;2022-08-19T12:07:15;12.60;;;10.63;;
15486;SDS011;7845;53.698;10.078;2022-08-19T12:09:40;16.73;;;13.90;;
15486;SDS011;7845;53.698;10.078;2022-08-19T12:12:06;13.60;;;12.10;;
15486;SDS011;7845;53.698;10.078;2022-08-19T12:14:31;12.97;;;11.53;;
15486;SDS011;7845;53.698;10.078;2022-08-19T12:16:57;11.70;;;9.93;;
15486;SDS011;7845;53.698;10.078;2022-08-19T12:19:22;14.03;;;11.40;;
15486;SDS011;7845;53.698;10.078;2022-08-19T12:21:49;19.40;;;13.57;;
15486;SDS011;7845;53.698;10.078;2022-08-19T12:24:15;12.13;;;10.70;;
15486;SDS011;7845;53.698;10.078;2022-08-19T12:26:45;18.90;;;14.13;;
15486;SDS011;7845;53.698;10.078;2022-08-19T12:29:10;16.60;;;12.30;;
15486;SDS011;7845;53.698;10.078;2022-08-19T12:31:35;15.87;;;13.00;;
15486;SDS011;7845;53.698;10.078;2022-08-19T12:34:01;15.13;;;11.00;;
15486;SDS011;7845;53.698;10.078;2022-08-19T12:36:27;15.50;;;10.73;;
15486;SDS011;7845;53.698;10.078;2022-08-19T12:38:53;14.53;;;13.00;;
15486;SDS011;7845;53.698;10.078;2022-08-19T12:41:19;14.27;;;11.83;;
15486;SDS011;7845;53.698;10.078;2022-08-19T12:43:47;17.70;;;12.77;;
15486;SDS011;7845;53.698;10.078;2022-08-19T12:46:14;18.00;;;13.53;;
15486;SDS011;7845;53.698;10.078;2022-08-19T12:48:39;17.37;;;12.07;;
15486;SDS011;7845;53.698;10.078;2022-08-19T12:51:11;17.20;;;14.83;;
15486;SDS011;7845;53.698;10.078;2022-08-19T12:53:39;15.40;;;12.97;;
15486;SDS011;7845;53.698;10.078;2022-08-19T12:56:06;16.83;;;14.07;;
15486;SDS011;7845;53.698;10.078;2022-08-19T12:58:32;14.40;;;12.07;;
15486;SDS011;7845;53.698;10.078;2022-08-19T13:00:59;16.33;;;13.50;;
15486;SDS011;7845;53.698;10.078;2022-08-19T13:03:30;15.60;;;13.17;;
15486;SDS011;7845;53.698;10.078;2022-08-19T13:05:56;15.63;;;13.93;;
15486;SDS011;7845;53.698;10.078;2022-08-19T13:08:21;14.07;;;10.70;;
15486;SDS011;7845;53.698;10.078;2022-08-19T13:10:47;14.10;;;11.60;;
15486;SDS011;7845;53.698;10.078;2022-08-19T13:13:12;14.43;;;12.90;;
15486;SDS011;7845;53.698;10.078;2022-08-19T13:15:39;15.23;;;11.80;;
15486;SDS011;7845;53.698;10.078;2022-08-19T13:18:06;12.70;;;11.27;;
15486;SDS011;7845;53.698;10.078;2022-08-19T13:20:34;11.90;;;9.70;;
15486;SDS011;7845;53.698;10.078;2022-08-19T13:23:00;14.83;;;12.30;;
15486;SDS011;7845;53.698;10.078;2022-08-19T13:25:25;13.37;;;9.77;;
15486;SDS011;7845;53.698;10.078;2022-08-19T13:27:51;12.70;;;10.40;;
15486;SDS011;7845;53.698;10.078;2022-08-19T13:30:17;15.00;;;12.20;;
15486;SDS011;7845;53.698;10.078;2022-08-19T13:33:06;14.80;;;11.40;;
15486;SDS011;7845;53.698;10.078;2022-08-19T13:35:57;14.67;;;11.67;;
15486;SDS011;7845;53.698;10.078;2022-08-19T13:38:23;12.30;;;11.00;;
15486;SDS011;7845;53.698;10.078;2022-08-19T13:40:50;14.97;;;11.23;;
15486;SDS011;7845;53.698;10.078;2022-08-19T13:43:18;13.23;;;11.17;;
15486;SDS011;7845;53.698;10.078;2022-08-19T13:45:47;16.30;;;11.70;;
15486;SDS011;7845;53.698;10.078;2022-08-19T13:48:13;12.03;;;10.73;;
15486;SDS011;7845;53.698;10.078;2022-08-19T13:50:40;12.47;;;10.47;;
15486;SDS011;7845;53.698;10.078;2022-08-19T13:53:09;14.53;;;10.93;;
15486;SDS011;7845;53.698;10.078;2022-08-19T13:55:39;12.50;;;10.93;;
15486;SDS011;7845;53.698;10.078;2022-08-19T13:58:06;12.17;;;10.87;;
15486;SDS011;7845;53.698;10.078;2022-08-19T14:00:34;10.53;;;8.80;;
15486;SDS011;7845;53.698;10.078;2022-08-19T14:03:01;14.07;;;10.87;;
15486;SDS011;7845;53.698;10.078;2022-08-19T14:05:28;15.57;;;11.90;;
15486;SDS011;7845;53.698;10.078;2022-08-19T14:07:54;12.07;;;10.77;;
15486;SDS011;7845;53.698;10.078;2022-08-19T14:10:20;14.27;;;12.10;;
15486;SDS011;7845;53.698;10.078;2022-08-19T14:12:48;12.17;;;10.87;;
15486;SDS011;7845;53.698;10.078;2022-08-19T14:15:14;13.47;;;11.27;;
15486;SDS011;7845;53.698;10.078;2022-08-19T14:17:43;13.93;;;11.07;;
15486;SDS011;7845;53.698;10.078;2022-08-19T14:20:12;9.77;;;8.33;;
15486;SDS011;7845;53.698;10.078;2022-08-19T14:22:39;12.00;;;9.90;;
15486;SDS011;7845;53.698;10.078;2022-08-19T14:25:06;13.13;;;10.60;;
15486;SDS011;7845;53.698;10.078;2022-08-19T14:27:34;13.30;;;11.50;;
15486;SDS011;7845;53.698;10.078;2022-08-19T14:30:00;12.30;;;10.80;;
15486;SDS011;7845;53.698;10.078;2022-08-19T14:32:25;13.30;;;10.17;;